sensor_id;sensor_type;location;lat;lon;timestamp;P1;durP1;ratioP1;P2;durP2;ratioP2
10880;SDS011;5493;48.884;8.338;2022-12-07T00:01:15;8.60;;;5.37;;
10880;SDS011;5493;48.884;8.338;2022-12-07T00:03:44;9.33;;;6.03;;
10880;SDS011;5493;48.884;8.338;2022-12-07T00:06:12;8.83;;;5.87;;
10880;SDS011;5493;48.884;8.338;2022-12-07T00:08:40;9.83;;;6.07;;
10880;SDS011;5493;48.884;8.338;2022-12-07T00:11:07;10.27;;;6.40;;
10880;SDS011;5493;48.884;8.338;2022-12-07T00:13:36;8.73;;;5.53;;
10880;SDS011;5493;48.884;8.338;2022-12-07T00:16:05;9.57;;;5.70;;
10880;SDS011;5493;48.884;8.338;2022-12-07T00:18:34;12.13;;;6.63;;
10880;SDS011;5493;48.884;8.338;2022-12-07T00:21:01;14.03;;;6.93;;
10880;SDS011;5493;48.884;8.338;2022-12-07T00:23:28;7.93;;;5.50;;
10880;SDS011;5493;48.884;8.338;2022-12-07T00:25:55;11.13;;;6.17;;
10880;SDS011;5493;48.884;8.338;2022-12-07T00:28:22;13.07;;;6.90;;
10880;SDS011;5493;48.884;8.338;2022-12-07T00:30:49;10.20;;;5.40;;
10880;SDS011;5493;48.884;8.338;2022-12-07T00:33:16;12.17;;;6.43;;
10880;SDS011;5493;48.884;8.338;2022-12-07T00:35:43;10.60;;;6.67;;
10880;SDS011;5493;48.884;8.338;2022-12-07T00:38:10;8.07;;;5.47;;
10880;SDS011;5493;48.884;8.338;2022-12-07T00:40:36;9.43;;;5.93;;
10880;SDS011;5493;48.884;8.338;2022-12-07T00:43:03;10.47;;;6.10;;
10880;SDS011;5493;48.884;8.338;2022-12-07T00:45:29;9.83;;;6.40;;
10880;SDS011;5493;48.884;8.338;2022-12-07T00:47:56;8.93;;;6.07;;
10880;SDS011;5493;48.884;8.338;2022-12-07T00:50:23;10.57;;;5.70;;
10880;SDS011;5493;48.884;8.338;2022-12-07T00:52:50;9.47;;;6.40;;
10880;SDS011;5493;48.884;8.338;2022-12-07T00:55:17;11.33;;;6.07;;
10880;SDS011;5493;48.884;8.338;2022-12-07T00:57:43;8.53;;;5.23;;
10880;SDS011;5493;48.884;8.338;2022-12-07T01:00:10;11.63;;;6.53;;
10880;SDS011;5493;48.884;8.338;2022-12-07T01:02:37;13.13;;;6.30;;
10880;SDS011;5493;48.884;8.338;2022-12-07T01:05:04;9.43;;;6.03;;
10880;SDS011;5493;48.884;8.338;2022-12-07T01:07:32;9.03;;;5.60;;
10880;SDS011;5493;48.884;8.338;2022-12-07T01:09:59;10.03;;;5.90;;
10880;SDS011;5493;48.884;8.338;2022-12-07T01:12:25;10.97;;;6.67;;
10880;SDS011;5493;48.884;8.338;2022-12-07T01:14:52;10.70;;;6.30;;
10880;SDS011;5493;48.884;8.338;2022-12-07T01:17:18;9.73;;;6.17;;
10880;SDS011;5493;48.884;8.338;2022-12-07T01:19:45;10.23;;;6.33;;
10880;SDS011;5493;48.884;8.338;2022-12-07T01:22:11;10.20;;;6.27;;
10880;SDS011;5493;48.884;8.338;2022-12-07T01:24:39;11.00;;;6.70;;
10880;SDS011;5493;48.884;8.338;2022-12-07T01:27:06;8.83;;;5.43;;
10880;SDS011;5493;48.884;8.338;2022-12-07T01:29:32;12.70;;;6.23;;
10880;SDS011;5493;48.884;8.338;2022-12-07T01:31:59;10.70;;;5.97;;
10880;SDS011;5493;48.884;8.338;2022-12-07T01:34:26;10.07;;;5.37;;
10880;SDS011;5493;48.884;8.338;2022-12-07T01:36:52;9.03;;;5.47;;
10880;SDS011;5493;48.884;8.338;2022-12-07T01:39:19;8.77;;;6.10;;
10880;SDS011;5493;48.884;8.338;2022-12-07T01:41:46;9.47;;;5.17;;
10880;SDS011;5493;48.884;8.338;2022-12-07T01:44:15;8.40;;;5.03;;
10880;SDS011;5493;48.884;8.338;2022-12-07T01:46:45;10.53;;;6.37;;
10880;SDS011;5493;48.884;8.338;2022-12-07T01:49:14;7.57;;;4.97;;
10880;SDS011;5493;48.884;8.338;2022-12-07T01:51:45;8.03;;;5.20;;
10880;SDS011;5493;48.884;8.338;2022-12-07T01:54:13;9.93;;;5.93;;
10880;SDS011;5493;48.884;8.338;2022-12-07T01:56:42;8.87;;;6.00;;
10880;SDS011;5493;48.884;8.338;2022-12-07T01:59:16;8.97;;;5.67;;
10880;SDS011;5493;48.884;8.338;2022-12-07T02:01:45;10.20;;;5.63;;
10880;SDS011;5493;48.884;8.338;2022-12-07T02:04:12;8.43;;;5.50;;
10880;SDS011;5493;48.884;8.338;2022-12-07T02:06:39;11.83;;;5.63;;
10880;SDS011;5493;48.884;8.338;2022-12-07T02:09:07;8.83;;;5.07;;
10880;SDS011;5493;48.884;8.338;2022-12-07T02:11:34;9.27;;;5.67;;
10880;SDS011;5493;48.884;8.338;2022-12-07T02:14:01;8.60;;;5.27;;
10880;SDS011;5493;48.884;8.338;2022-12-07T02:16:31;8.53;;;5.37;;
10880;SDS011;5493;48.884;8.338;2022-12-07T02:19:09;8.57;;;5.57;;
10880;SDS011;5493;48.884;8.338;2022-12-07T02:21:59;9.83;;;5.40;;
10880;SDS011;5493;48.884;8.338;2022-12-07T02:24:39;9.17;;;5.53;;
10880;SDS011;5493;48.884;8.338;2022-12-07T02:27:34;7.87;;;5.00;;
10880;SDS011;5493;48.884;8.338;2022-12-07T02:30:08;8.33;;;4.47;;
10880;SDS011;5493;48.884;8.338;2022-12-07T02:32:40;7.73;;;5.17;;
10880;SDS011;5493;48.884;8.338;2022-12-07T02:35:11;11.07;;;5.20;;
10880;SDS011;5493;48.884;8.338;2022-12-07T02:37:42;8.87;;;5.27;;
10880;SDS011;5493;48.884;8.338;2022-12-07T02:40:19;7.13;;;4.13;;
10880;SDS011;5493;48.884;8.338;2022-12-07T02:42:50;7.63;;;4.33;;
10880;SDS011;5493;48.884;8.338;2022-12-07T02:45:22;9.53;;;5.03;;
10880;SDS011;5493;48.884;8.338;2022-12-07T02:47:53;7.53;;;5.20;;
10880;SDS011;5493;48.884;8.338;2022-12-07T02:50:23;6.63;;;4.47;;
10880;SDS011;5493;48.884;8.338;2022-12-07T02:52:51;7.13;;;4.77;;
10880;SDS011;5493;48.884;8.338;2022-12-07T02:55:18;9.00;;;5.47;;
10880;SDS011;5493;48.884;8.338;2022-12-07T02:57:53;7.00;;;4.80;;
10880;SDS011;5493;48.884;8.338;2022-12-07T03:00:29;8.67;;;5.60;;
10880;SDS011;5493;48.884;8.338;2022-12-07T03:03:03;7.60;;;5.13;;
10880;SDS011;5493;48.884;8.338;2022-12-07T03:05:40;8.90;;;5.87;;
10880;SDS011;5493;48.884;8.338;2022-12-07T03:08:21;8.17;;;5.23;;
10880;SDS011;5493;48.884;8.338;2022-12-07T03:10:56;9.47;;;4.43;;
10880;SDS011;5493;48.884;8.338;2022-12-07T03:13:26;8.20;;;4.53;;
10880;SDS011;5493;48.884;8.338;2022-12-07T03:16:00;7.70;;;4.80;;
10880;SDS011;5493;48.884;8.338;2022-12-07T03:18:31;7.87;;;4.67;;
10880;SDS011;5493;48.884;8.338;2022-12-07T03:21:04;6.90;;;4.63;;
10880;SDS011;5493;48.884;8.338;2022-12-07T03:23:34;8.17;;;4.87;;
10880;SDS011;5493;48.884;8.338;2022-12-07T03:26:03;8.23;;;4.37;;
10880;SDS011;5493;48.884;8.338;2022-12-07T03:28:35;8.70;;;5.33;;
10880;SDS011;5493;48.884;8.338;2022-12-07T03:31:09;9.97;;;5.30;;
10880;SDS011;5493;48.884;8.338;2022-12-07T03:33:43;9.57;;;5.13;;
10880;SDS011;5493;48.884;8.338;2022-12-07T03:36:14;7.27;;;5.03;;
10880;SDS011;5493;48.884;8.338;2022-12-07T03:38:49;9.23;;;5.43;;
10880;SDS011;5493;48.884;8.338;2022-12-07T03:41:21;8.00;;;5.20;;
10880;SDS011;5493;48.884;8.338;2022-12-07T03:43:49;7.17;;;4.77;;
10880;SDS011;5493;48.884;8.338;2022-12-07T03:46:19;8.77;;;5.53;;
10880;SDS011;5493;48.884;8.338;2022-12-07T03:48:52;10.13;;;5.73;;
10880;SDS011;5493;48.884;8.338;2022-12-07T03:51:25;8.50;;;5.47;;
10880;SDS011;5493;48.884;8.338;2022-12-07T03:53:55;7.90;;;4.70;;
10880;SDS011;5493;48.884;8.338;2022-12-07T03:56:28;9.70;;;4.67;;
10880;SDS011;5493;48.884;8.338;2022-12-07T03:58:56;7.13;;;4.80;;
10880;SDS011;5493;48.884;8.338;2022-12-07T04:01:24;7.53;;;4.60;;
10880;SDS011;5493;48.884;8.338;2022-12-07T04:03:50;12.83;;;5.00;;
10880;SDS011;5493;48.884;8.338;2022-12-07T04:06:17;8.20;;;5.10;;
10880;SDS011;5493;48.884;8.338;2022-12-07T04:08:44;8.23;;;5.40;;
10880;SDS011;5493;48.884;8.338;2022-12-07T04:11:11;9.47;;;6.07;;
10880;SDS011;5493;48.884;8.338;2022-12-07T04:13:38;9.13;;;5.40;;
10880;SDS011;5493;48.884;8.338;2022-12-07T04:16:18;7.67;;;4.37;;
10880;SDS011;5493;48.884;8.338;2022-12-07T04:18:46;8.17;;;5.17;;
10880;SDS011;5493;48.884;8.338;2022-12-07T04:21:13;8.70;;;5.20;;
10880;SDS011;5493;48.884;8.338;2022-12-07T04:23:39;8.37;;;4.97;;
10880;SDS011;5493;48.884;8.338;2022-12-07T04:26:06;9.33;;;4.47;;
10880;SDS011;5493;48.884;8.338;2022-12-07T04:28:32;9.37;;;5.50;;
10880;SDS011;5493;48.884;8.338;2022-12-07T04:30:59;9.73;;;5.50;;
10880;SDS011;5493;48.884;8.338;2022-12-07T04:33:26;10.93;;;5.77;;
10880;SDS011;5493;48.884;8.338;2022-12-07T04:35:54;8.93;;;5.73;;
10880;SDS011;5493;48.884;8.338;2022-12-07T04:38:20;8.13;;;5.07;;
10880;SDS011;5493;48.884;8.338;2022-12-07T04:40:47;8.10;;;5.13;;
10880;SDS011;5493;48.884;8.338;2022-12-07T04:43:13;10.37;;;5.70;;
10880;SDS011;5493;48.884;8.338;2022-12-07T04:45:40;10.63;;;6.20;;
10880;SDS011;5493;48.884;8.338;2022-12-07T04:48:12;10.20;;;5.60;;
10880;SDS011;5493;48.884;8.338;2022-12-07T04:50:38;9.60;;;5.40;;
10880;SDS011;5493;48.884;8.338;2022-12-07T04:53:06;9.33;;;5.20;;
10880;SDS011;5493;48.884;8.338;2022-12-07T04:55:33;8.73;;;4.73;;
10880;SDS011;5493;48.884;8.338;2022-12-07T04:57:59;7.03;;;5.10;;
10880;SDS011;5493;48.884;8.338;2022-12-07T05:00:26;9.07;;;5.13;;
10880;SDS011;5493;48.884;8.338;2022-12-07T05:02:52;7.43;;;4.53;;
10880;SDS011;5493;48.884;8.338;2022-12-07T05:05:19;9.17;;;4.13;;
10880;SDS011;5493;48.884;8.338;2022-12-07T05:07:46;6.57;;;4.03;;
10880;SDS011;5493;48.884;8.338;2022-12-07T05:10:14;6.73;;;4.47;;
10880;SDS011;5493;48.884;8.338;2022-12-07T05:12:40;8.20;;;4.33;;
10880;SDS011;5493;48.884;8.338;2022-12-07T05:15:07;6.00;;;4.53;;
10880;SDS011;5493;48.884;8.338;2022-12-07T05:17:34;6.20;;;4.07;;
10880;SDS011;5493;48.884;8.338;2022-12-07T05:20:00;7.63;;;5.23;;
10880;SDS011;5493;48.884;8.338;2022-12-07T05:22:27;7.77;;;4.77;;
10880;SDS011;5493;48.884;8.338;2022-12-07T05:24:54;9.57;;;5.60;;
10880;SDS011;5493;48.884;8.338;2022-12-07T05:27:22;8.43;;;5.40;;
10880;SDS011;5493;48.884;8.338;2022-12-07T05:29:49;7.93;;;4.97;;
10880;SDS011;5493;48.884;8.338;2022-12-07T05:32:16;6.80;;;5.10;;
10880;SDS011;5493;48.884;8.338;2022-12-07T05:34:42;7.63;;;5.23;;
10880;SDS011;5493;48.884;8.338;2022-12-07T05:37:09;9.30;;;5.77;;
10880;SDS011;5493;48.884;8.338;2022-12-07T05:39:35;8.97;;;5.10;;
10880;SDS011;5493;48.884;8.338;2022-12-07T05:42:02;6.73;;;4.97;;
10880;SDS011;5493;48.884;8.338;2022-12-07T05:44:39;7.80;;;4.67;;
10880;SDS011;5493;48.884;8.338;2022-12-07T05:47:06;8.47;;;5.37;;
10880;SDS011;5493;48.884;8.338;2022-12-07T05:49:32;7.30;;;4.80;;
10880;SDS011;5493;48.884;8.338;2022-12-07T05:52:00;9.07;;;4.70;;
10880;SDS011;5493;48.884;8.338;2022-12-07T05:54:27;8.83;;;5.30;;
10880;SDS011;5493;48.884;8.338;2022-12-07T05:56:54;6.10;;;4.10;;
10880;SDS011;5493;48.884;8.338;2022-12-07T05:59:20;7.40;;;4.60;;
10880;SDS011;5493;48.884;8.338;2022-12-07T06:01:50;9.43;;;5.10;;
10880;SDS011;5493;48.884;8.338;2022-12-07T06:04:18;10.97;;;5.20;;
10880;SDS011;5493;48.884;8.338;2022-12-07T06:06:46;8.50;;;5.07;;
10880;SDS011;5493;48.884;8.338;2022-12-07T06:09:13;6.50;;;4.57;;
10880;SDS011;5493;48.884;8.338;2022-12-07T06:11:40;8.50;;;5.13;;
10880;SDS011;5493;48.884;8.338;2022-12-07T06:14:24;8.33;;;4.60;;
10880;SDS011;5493;48.884;8.338;2022-12-07T06:16:52;12.33;;;6.40;;
10880;SDS011;5493;48.884;8.338;2022-12-07T06:19:19;10.93;;;5.70;;
10880;SDS011;5493;48.884;8.338;2022-12-07T06:21:45;13.93;;;5.90;;
10880;SDS011;5493;48.884;8.338;2022-12-07T06:24:12;9.60;;;5.33;;
10880;SDS011;5493;48.884;8.338;2022-12-07T06:26:40;8.47;;;5.47;;
10880;SDS011;5493;48.884;8.338;2022-12-07T06:29:07;9.00;;;5.30;;
10880;SDS011;5493;48.884;8.338;2022-12-07T06:31:34;10.03;;;6.17;;
10880;SDS011;5493;48.884;8.338;2022-12-07T06:34:03;7.90;;;4.83;;
10880;SDS011;5493;48.884;8.338;2022-12-07T06:36:32;10.20;;;4.70;;
10880;SDS011;5493;48.884;8.338;2022-12-07T06:38:59;7.73;;;5.07;;
10880;SDS011;5493;48.884;8.338;2022-12-07T06:41:25;7.47;;;4.20;;
10880;SDS011;5493;48.884;8.338;2022-12-07T06:43:52;6.97;;;4.40;;
10880;SDS011;5493;48.884;8.338;2022-12-07T06:46:18;6.03;;;3.80;;
10880;SDS011;5493;48.884;8.338;2022-12-07T06:48:45;5.90;;;4.03;;
10880;SDS011;5493;48.884;8.338;2022-12-07T06:51:13;6.13;;;4.10;;
10880;SDS011;5493;48.884;8.338;2022-12-07T06:53:39;7.63;;;4.70;;
10880;SDS011;5493;48.884;8.338;2022-12-07T06:56:07;6.50;;;4.13;;
10880;SDS011;5493;48.884;8.338;2022-12-07T06:58:33;4.97;;;3.20;;
10880;SDS011;5493;48.884;8.338;2022-12-07T07:01:00;6.90;;;4.23;;
10880;SDS011;5493;48.884;8.338;2022-12-07T07:03:26;8.23;;;4.40;;
10880;SDS011;5493;48.884;8.338;2022-12-07T07:05:53;6.03;;;3.80;;
10880;SDS011;5493;48.884;8.338;2022-12-07T07:08:21;6.70;;;4.03;;
10880;SDS011;5493;48.884;8.338;2022-12-07T07:10:47;6.90;;;4.03;;
10880;SDS011;5493;48.884;8.338;2022-12-07T07:13:14;6.07;;;4.37;;
10880;SDS011;5493;48.884;8.338;2022-12-07T07:15:41;6.43;;;3.97;;
10880;SDS011;5493;48.884;8.338;2022-12-07T07:18:08;7.23;;;4.53;;
10880;SDS011;5493;48.884;8.338;2022-12-07T07:20:34;6.03;;;4.27;;
10880;SDS011;5493;48.884;8.338;2022-12-07T07:23:01;5.57;;;3.80;;
10880;SDS011;5493;48.884;8.338;2022-12-07T07:25:29;5.50;;;3.67;;
10880;SDS011;5493;48.884;8.338;2022-12-07T07:27:55;7.23;;;3.90;;
10880;SDS011;5493;48.884;8.338;2022-12-07T07:30:22;7.20;;;4.30;;
10880;SDS011;5493;48.884;8.338;2022-12-07T07:32:49;6.13;;;4.00;;
10880;SDS011;5493;48.884;8.338;2022-12-07T07:35:15;9.90;;;4.13;;
10880;SDS011;5493;48.884;8.338;2022-12-07T07:37:42;7.47;;;3.90;;
10880;SDS011;5493;48.884;8.338;2022-12-07T07:40:09;5.80;;;3.67;;
10880;SDS011;5493;48.884;8.338;2022-12-07T07:42:38;8.47;;;4.07;;
10880;SDS011;5493;48.884;8.338;2022-12-07T07:45:04;8.37;;;4.40;;
10880;SDS011;5493;48.884;8.338;2022-12-07T07:47:32;4.50;;;2.97;;
10880;SDS011;5493;48.884;8.338;2022-12-07T07:49:58;7.23;;;4.60;;
10880;SDS011;5493;48.884;8.338;2022-12-07T07:52:26;6.27;;;3.83;;
10880;SDS011;5493;48.884;8.338;2022-12-07T07:54:52;7.53;;;4.50;;
10880;SDS011;5493;48.884;8.338;2022-12-07T07:57:19;6.80;;;4.47;;
10880;SDS011;5493;48.884;8.338;2022-12-07T07:59:47;6.10;;;4.13;;
10880;SDS011;5493;48.884;8.338;2022-12-07T08:02:14;9.90;;;4.80;;
10880;SDS011;5493;48.884;8.338;2022-12-07T08:04:42;7.17;;;4.47;;
10880;SDS011;5493;48.884;8.338;2022-12-07T08:07:09;5.87;;;3.37;;
10880;SDS011;5493;48.884;8.338;2022-12-07T08:09:36;6.33;;;4.43;;
10880;SDS011;5493;48.884;8.338;2022-12-07T08:12:02;6.10;;;3.60;;
10880;SDS011;5493;48.884;8.338;2022-12-07T08:14:30;7.53;;;5.00;;
10880;SDS011;5493;48.884;8.338;2022-12-07T08:16:58;7.43;;;4.73;;
10880;SDS011;5493;48.884;8.338;2022-12-07T08:19:24;6.93;;;4.67;;
10880;SDS011;5493;48.884;8.338;2022-12-07T08:21:51;5.53;;;3.43;;
10880;SDS011;5493;48.884;8.338;2022-12-07T08:24:20;6.93;;;3.87;;
10880;SDS011;5493;48.884;8.338;2022-12-07T08:26:46;5.87;;;3.47;;
10880;SDS011;5493;48.884;8.338;2022-12-07T08:29:15;8.50;;;4.43;;
10880;SDS011;5493;48.884;8.338;2022-12-07T08:31:41;5.60;;;3.77;;
10880;SDS011;5493;48.884;8.338;2022-12-07T08:34:11;6.57;;;4.13;;
10880;SDS011;5493;48.884;8.338;2022-12-07T08:36:38;6.30;;;4.00;;
10880;SDS011;5493;48.884;8.338;2022-12-07T08:39:04;4.97;;;3.57;;
10880;SDS011;5493;48.884;8.338;2022-12-07T08:41:32;5.63;;;4.07;;
10880;SDS011;5493;48.884;8.338;2022-12-07T08:43:58;6.40;;;3.57;;
10880;SDS011;5493;48.884;8.338;2022-12-07T08:46:26;6.83;;;4.30;;
10880;SDS011;5493;48.884;8.338;2022-12-07T08:48:58;6.50;;;4.00;;
10880;SDS011;5493;48.884;8.338;2022-12-07T08:51:30;7.03;;;4.10;;
10880;SDS011;5493;48.884;8.338;2022-12-07T08:53:58;7.10;;;4.73;;
10880;SDS011;5493;48.884;8.338;2022-12-07T08:56:26;6.17;;;4.33;;
10880;SDS011;5493;48.884;8.338;2022-12-07T08:58:53;7.53;;;4.20;;
10880;SDS011;5493;48.884;8.338;2022-12-07T09:01:20;8.03;;;4.80;;
10880;SDS011;5493;48.884;8.338;2022-12-07T09:03:46;5.73;;;3.73;;
10880;SDS011;5493;48.884;8.338;2022-12-07T09:06:13;6.73;;;3.53;;
10880;SDS011;5493;48.884;8.338;2022-12-07T09:08:41;7.23;;;3.80;;
10880;SDS011;5493;48.884;8.338;2022-12-07T09:11:12;5.70;;;3.60;;
10880;SDS011;5493;48.884;8.338;2022-12-07T09:13:39;7.20;;;4.07;;
10880;SDS011;5493;48.884;8.338;2022-12-07T09:16:05;6.10;;;3.83;;
10880;SDS011;5493;48.884;8.338;2022-12-07T09:18:32;6.80;;;3.73;;
10880;SDS011;5493;48.884;8.338;2022-12-07T09:20:59;6.67;;;4.20;;
10880;SDS011;5493;48.884;8.338;2022-12-07T09:23:25;9.80;;;4.30;;
10880;SDS011;5493;48.884;8.338;2022-12-07T09:25:53;7.03;;;3.47;;
10880;SDS011;5493;48.884;8.338;2022-12-07T09:28:20;6.60;;;4.00;;
10880;SDS011;5493;48.884;8.338;2022-12-07T09:30:47;6.63;;;3.50;;
10880;SDS011;5493;48.884;8.338;2022-12-07T09:33:14;7.10;;;4.03;;
10880;SDS011;5493;48.884;8.338;2022-12-07T09:35:44;7.73;;;4.30;;
10880;SDS011;5493;48.884;8.338;2022-12-07T09:38:11;7.80;;;4.47;;
10880;SDS011;5493;48.884;8.338;2022-12-07T09:40:41;7.63;;;4.40;;
10880;SDS011;5493;48.884;8.338;2022-12-07T09:43:12;9.03;;;5.17;;
10880;SDS011;5493;48.884;8.338;2022-12-07T09:45:41;8.23;;;4.40;;
10880;SDS011;5493;48.884;8.338;2022-12-07T09:48:13;5.73;;;4.23;;
10880;SDS011;5493;48.884;8.338;2022-12-07T09:50:44;7.97;;;4.60;;
10880;SDS011;5493;48.884;8.338;2022-12-07T09:53:13;7.47;;;5.53;;
10880;SDS011;5493;48.884;8.338;2022-12-07T09:55:45;10.60;;;5.10;;
10880;SDS011;5493;48.884;8.338;2022-12-07T09:58:16;8.53;;;4.30;;
10880;SDS011;5493;48.884;8.338;2022-12-07T10:00:46;8.53;;;3.60;;
10880;SDS011;5493;48.884;8.338;2022-12-07T10:03:13;6.73;;;4.43;;
10880;SDS011;5493;48.884;8.338;2022-12-07T10:05:40;7.00;;;4.23;;
10880;SDS011;5493;48.884;8.338;2022-12-07T10:08:11;6.90;;;4.40;;
10880;SDS011;5493;48.884;8.338;2022-12-07T10:10:39;6.03;;;4.30;;
10880;SDS011;5493;48.884;8.338;2022-12-07T10:13:07;10.07;;;6.03;;
10880;SDS011;5493;48.884;8.338;2022-12-07T10:15:43;10.10;;;5.47;;
10880;SDS011;5493;48.884;8.338;2022-12-07T10:18:26;7.43;;;4.40;;
10880;SDS011;5493;48.884;8.338;2022-12-07T10:21:11;6.27;;;3.77;;
10880;SDS011;5493;48.884;8.338;2022-12-07T10:23:41;7.03;;;3.83;;
10880;SDS011;5493;48.884;8.338;2022-12-07T10:26:27;7.47;;;4.73;;
10880;SDS011;5493;48.884;8.338;2022-12-07T10:28:58;6.53;;;3.93;;
10880;SDS011;5493;48.884;8.338;2022-12-07T10:31:27;5.90;;;3.80;;
10880;SDS011;5493;48.884;8.338;2022-12-07T10:33:55;5.47;;;3.83;;
10880;SDS011;5493;48.884;8.338;2022-12-07T10:36:24;5.77;;;3.73;;
10880;SDS011;5493;48.884;8.338;2022-12-07T10:38:52;9.73;;;4.93;;
10880;SDS011;5493;48.884;8.338;2022-12-07T10:41:25;9.93;;;5.60;;
10880;SDS011;5493;48.884;8.338;2022-12-07T10:43:52;14.93;;;5.60;;
10880;SDS011;5493;48.884;8.338;2022-12-07T10:52:38;6.77;;;4.20;;
10880;SDS011;5493;48.884;8.338;2022-12-07T10:55:16;8.53;;;4.43;;
10880;SDS011;5493;48.884;8.338;2022-12-07T10:57:53;6.53;;;3.73;;
10880;SDS011;5493;48.884;8.338;2022-12-07T11:00:29;6.53;;;3.80;;
10880;SDS011;5493;48.884;8.338;2022-12-07T11:03:09;6.53;;;4.07;;
10880;SDS011;5493;48.884;8.338;2022-12-07T11:05:58;6.77;;;3.97;;
10880;SDS011;5493;48.884;8.338;2022-12-07T11:08:39;5.43;;;3.97;;
10880;SDS011;5493;48.884;8.338;2022-12-07T11:11:18;8.20;;;4.80;;
10880;SDS011;5493;48.884;8.338;2022-12-07T11:13:52;8.63;;;4.23;;
10880;SDS011;5493;48.884;8.338;2022-12-07T11:16:30;7.03;;;4.60;;
10880;SDS011;5493;48.884;8.338;2022-12-07T11:19:14;8.27;;;4.10;;
10880;SDS011;5493;48.884;8.338;2022-12-07T11:21:58;6.10;;;3.87;;
10880;SDS011;5493;48.884;8.338;2022-12-07T11:24:32;9.93;;;5.03;;
10880;SDS011;5493;48.884;8.338;2022-12-07T11:27:08;8.80;;;5.17;;
10880;SDS011;5493;48.884;8.338;2022-12-07T11:29:53;9.37;;;5.37;;
10880;SDS011;5493;48.884;8.338;2022-12-07T11:32:40;7.03;;;4.47;;
10880;SDS011;5493;48.884;8.338;2022-12-07T11:35:16;12.07;;;5.90;;
10880;SDS011;5493;48.884;8.338;2022-12-07T11:37:51;6.70;;;3.70;;
10880;SDS011;5493;48.884;8.338;2022-12-07T11:40:24;11.07;;;4.30;;
10880;SDS011;5493;48.884;8.338;2022-12-07T11:42:55;8.73;;;4.07;;
10880;SDS011;5493;48.884;8.338;2022-12-07T11:45:28;7.87;;;4.87;;
10880;SDS011;5493;48.884;8.338;2022-12-07T11:47:59;7.33;;;4.17;;
10880;SDS011;5493;48.884;8.338;2022-12-07T11:50:31;7.60;;;4.83;;
10880;SDS011;5493;48.884;8.338;2022-12-07T11:53:01;10.93;;;4.53;;
10880;SDS011;5493;48.884;8.338;2022-12-07T11:55:32;8.37;;;4.90;;
10880;SDS011;5493;48.884;8.338;2022-12-07T11:58:11;11.77;;;4.57;;
10880;SDS011;5493;48.884;8.338;2022-12-07T12:00:47;11.43;;;4.87;;
10880;SDS011;5493;48.884;8.338;2022-12-07T12:03:15;8.53;;;4.73;;
10880;SDS011;5493;48.884;8.338;2022-12-07T12:05:56;9.13;;;5.20;;
10880;SDS011;5493;48.884;8.338;2022-12-07T12:08:23;9.03;;;5.40;;
10880;SDS011;5493;48.884;8.338;2022-12-07T12:10:55;7.47;;;4.90;;
10880;SDS011;5493;48.884;8.338;2022-12-07T12:13:43;10.07;;;5.00;;
10880;SDS011;5493;48.884;8.338;2022-12-07T12:16:30;7.67;;;4.67;;
10880;SDS011;5493;48.884;8.338;2022-12-07T12:19:25;7.43;;;4.40;;
10880;SDS011;5493;48.884;8.338;2022-12-07T12:22:01;9.47;;;5.20;;
10880;SDS011;5493;48.884;8.338;2022-12-07T12:24:32;10.90;;;5.13;;
10880;SDS011;5493;48.884;8.338;2022-12-07T12:27:02;8.20;;;5.10;;
10880;SDS011;5493;48.884;8.338;2022-12-07T12:29:33;9.67;;;4.93;;
10880;SDS011;5493;48.884;8.338;2022-12-07T12:32:06;6.80;;;4.30;;
10880;SDS011;5493;48.884;8.338;2022-12-07T12:34:40;6.67;;;3.93;;
10880;SDS011;5493;48.884;8.338;2022-12-07T12:37:40;10.07;;;4.77;;
10880;SDS011;5493;48.884;8.338;2022-12-07T12:49:32;7.20;;;4.10;;
10880;SDS011;5493;48.884;8.338;2022-12-07T12:52:01;7.67;;;4.30;;
10880;SDS011;5493;48.884;8.338;2022-12-07T12:55:13;9.70;;;5.53;;
10880;SDS011;5493;48.884;8.338;2022-12-07T12:57:45;10.40;;;5.17;;
10880;SDS011;5493;48.884;8.338;2022-12-07T13:00:15;8.60;;;5.40;;
10880;SDS011;5493;48.884;8.338;2022-12-07T13:02:47;11.50;;;5.90;;
10880;SDS011;5493;48.884;8.338;2022-12-07T13:05:18;14.10;;;5.87;;
10880;SDS011;5493;48.884;8.338;2022-12-07T13:07:51;8.67;;;5.63;;
10880;SDS011;5493;48.884;8.338;2022-12-07T13:10:36;9.50;;;6.00;;
10880;SDS011;5493;48.884;8.338;2022-12-07T13:22:34;13.57;;;8.03;;
10880;SDS011;5493;48.884;8.338;2022-12-07T13:25:18;9.60;;;5.57;;
10880;SDS011;5493;48.884;8.338;2022-12-07T13:27:54;17.83;;;8.40;;
10880;SDS011;5493;48.884;8.338;2022-12-07T13:30:23;11.27;;;7.00;;
10880;SDS011;5493;48.884;8.338;2022-12-07T13:32:54;11.43;;;6.07;;
10880;SDS011;5493;48.884;8.338;2022-12-07T13:35:28;11.37;;;7.50;;
10880;SDS011;5493;48.884;8.338;2022-12-07T13:38:01;9.10;;;5.43;;
10880;SDS011;5493;48.884;8.338;2022-12-07T13:40:30;11.00;;;6.33;;
10880;SDS011;5493;48.884;8.338;2022-12-07T13:42:58;11.10;;;6.67;;
10880;SDS011;5493;48.884;8.338;2022-12-07T13:45:26;12.63;;;6.90;;
10880;SDS011;5493;48.884;8.338;2022-12-07T13:48:08;11.33;;;6.07;;
10880;SDS011;5493;48.884;8.338;2022-12-07T13:50:42;18.17;;;8.33;;
10880;SDS011;5493;48.884;8.338;2022-12-07T13:53:11;15.20;;;8.20;;
10880;SDS011;5493;48.884;8.338;2022-12-07T13:55:43;11.07;;;6.63;;
10880;SDS011;5493;48.884;8.338;2022-12-07T13:58:12;10.00;;;6.03;;
10880;SDS011;5493;48.884;8.338;2022-12-07T14:00:40;9.60;;;5.83;;
10880;SDS011;5493;48.884;8.338;2022-12-07T14:03:22;13.23;;;7.87;;
10880;SDS011;5493;48.884;8.338;2022-12-07T14:06:03;12.27;;;6.47;;
10880;SDS011;5493;48.884;8.338;2022-12-07T14:08:47;13.33;;;6.03;;
10880;SDS011;5493;48.884;8.338;2022-12-07T14:11:15;11.27;;;6.53;;
10880;SDS011;5493;48.884;8.338;2022-12-07T14:13:49;11.23;;;6.10;;
10880;SDS011;5493;48.884;8.338;2022-12-07T14:16:23;12.43;;;5.90;;
10880;SDS011;5493;48.884;8.338;2022-12-07T14:18:53;9.47;;;5.30;;
10880;SDS011;5493;48.884;8.338;2022-12-07T14:21:21;11.43;;;7.07;;
10880;SDS011;5493;48.884;8.338;2022-12-07T14:24:02;12.60;;;6.43;;
10880;SDS011;5493;48.884;8.338;2022-12-07T14:26:37;13.53;;;6.77;;
10880;SDS011;5493;48.884;8.338;2022-12-07T14:29:29;12.70;;;7.03;;
10880;SDS011;5493;48.884;8.338;2022-12-07T14:32:01;10.17;;;6.23;;
10880;SDS011;5493;48.884;8.338;2022-12-07T14:34:58;11.53;;;6.50;;
10880;SDS011;5493;48.884;8.338;2022-12-07T14:37:26;12.20;;;6.80;;
10880;SDS011;5493;48.884;8.338;2022-12-07T14:39:54;17.77;;;7.60;;
10880;SDS011;5493;48.884;8.338;2022-12-07T14:42:21;17.30;;;9.83;;
10880;SDS011;5493;48.884;8.338;2022-12-07T14:44:53;19.40;;;10.37;;
10880;SDS011;5493;48.884;8.338;2022-12-07T14:47:20;19.20;;;9.90;;
10880;SDS011;5493;48.884;8.338;2022-12-07T14:49:46;12.40;;;6.77;;
10880;SDS011;5493;48.884;8.338;2022-12-07T14:52:14;10.33;;;6.53;;
10880;SDS011;5493;48.884;8.338;2022-12-07T14:54:43;8.60;;;5.90;;
10880;SDS011;5493;48.884;8.338;2022-12-07T14:57:09;12.37;;;6.67;;
10880;SDS011;5493;48.884;8.338;2022-12-07T14:59:37;9.27;;;5.87;;
10880;SDS011;5493;48.884;8.338;2022-12-07T15:02:05;10.60;;;6.43;;
10880;SDS011;5493;48.884;8.338;2022-12-07T15:04:32;13.20;;;7.37;;
10880;SDS011;5493;48.884;8.338;2022-12-07T15:06:59;12.00;;;7.30;;
10880;SDS011;5493;48.884;8.338;2022-12-07T15:09:27;10.83;;;6.07;;
10880;SDS011;5493;48.884;8.338;2022-12-07T15:11:54;13.00;;;6.90;;
10880;SDS011;5493;48.884;8.338;2022-12-07T15:14:21;8.00;;;5.43;;
10880;SDS011;5493;48.884;8.338;2022-12-07T15:16:47;9.57;;;5.93;;
10880;SDS011;5493;48.884;8.338;2022-12-07T15:19:16;11.13;;;6.57;;
10880;SDS011;5493;48.884;8.338;2022-12-07T15:21:44;12.67;;;6.93;;
10880;SDS011;5493;48.884;8.338;2022-12-07T15:24:11;10.57;;;6.27;;
10880;SDS011;5493;48.884;8.338;2022-12-07T15:26:38;10.23;;;5.87;;
10880;SDS011;5493;48.884;8.338;2022-12-07T15:29:06;13.03;;;7.17;;
10880;SDS011;5493;48.884;8.338;2022-12-07T15:31:34;13.53;;;7.60;;
10880;SDS011;5493;48.884;8.338;2022-12-07T15:34:01;11.87;;;6.23;;
10880;SDS011;5493;48.884;8.338;2022-12-07T15:36:32;12.03;;;6.50;;
10880;SDS011;5493;48.884;8.338;2022-12-07T15:38:59;13.70;;;7.50;;
10880;SDS011;5493;48.884;8.338;2022-12-07T15:41:26;10.50;;;6.20;;